Airport View

Enter AWOS ICAO identifier for current METAR.

ex. KFNL

KGZL 031555Z AUTO 32004KT 10SM CLR 30/18 A3001 RMK AO2

3 Jul 2020 16:02

Frequency: 118.575

Phone: 918-967-8982

Other Area AWOS: KJSV - KMKO - KRKR - KFSM

TAF KFSM 031125Z 0312/0412 05005KT P6SM SCT080 SCT250 FM031800 33007KT P6SM SCT040 PROB30 0321/0403 4SM -TSRA BKN025CB FM040300 02005KT P6SM BKN250